LTFJ/SAW METAR and TAF weather

Enter ICAO airport designator
Station Type Date Time Source
LTFJ METAR 2021/09/24 03:50 UTC NOAA

LTFJ 240350Z 14003KT 9999 FEW040 BKN080 13/10 Q1018 NOSIG


Station Type Date Time Source
LTFJ Decoded METAR 2021/09/24 03:50 UTC NOAA

Istanbul / Sabiha Gokcen, Turkey (LTFJ) 40-53-55N 029-18-33E
Sep 23, 2021 - 11:50 PM EDT / 2021.09.24 0350 UTC
Wind: from the SE (140 degrees) at 3 MPH (3 KT):0
Visibility: greater than 7 mile(s):0
Sky conditions: mostly cloudy
Temperature: 55 F (13 C)
Dew Point: 50 F (10 C)
Relative Humidity: 81%
Pressure (altimeter): 30.06 in. Hg (1018 hPa)
ob: LTFJ 240350Z 14003KT 9999 FEW040 BKN080 13/10 Q1018 NOSIG
cycle: 4

Station Type Date Time Source
LTFJ TAF 2021/09/23 18:03 UTC NOAA

TAF COR LTFJ 231640Z 2318/2418 01009KT 9999 BKN030
TEMPO 2318/2321 -SHRA
BECMG 2322/2402 SCT012
BECMG 2406/2409 26012KT

Example: see airport list